sensor_id;sensor_type;location;lat;lon;timestamp;pressure;altitude;pressure_sealevel;temperature;humidity
13695;BME280;6919;52.344;14.518;2023-03-13T00:01:24;99876.69;;;6.21;100.00
13695;BME280;6919;52.344;14.518;2023-03-13T00:03:53;99871.56;;;6.47;100.00
13695;BME280;6919;52.344;14.518;2023-03-13T00:06:24;99874.59;;;6.25;100.00
13695;BME280;6919;52.344;14.518;2023-03-13T00:08:53;99863.50;;;6.29;100.00
13695;BME280;6919;52.344;14.518;2023-03-13T00:11:22;99874.38;;;6.45;100.00
13695;BME280;6919;52.344;14.518;2023-03-13T00:13:54;99884.94;;;6.37;100.00
13695;BME280;6919;52.344;14.518;2023-03-13T00:16:23;99878.59;;;6.38;100.00
13695;BME280;6919;52.344;14.518;2023-03-13T00:18:53;99873.47;;;6.27;100.00
13695;BME280;6919;52.344;14.518;2023-03-13T00:21:24;99876.78;;;6.39;100.00
13695;BME280;6919;52.344;14.518;2023-03-13T00:23:53;99880.03;;;6.33;100.00
13695;BME280;6919;52.344;14.518;2023-03-13T00:26:24;99874.81;;;6.41;100.00
13695;BME280;6919;52.344;14.518;2023-03-13T00:28:53;99872.81;;;6.52;100.00
13695;BME280;6919;52.344;14.518;2023-03-13T00:31:23;99871.88;;;6.44;100.00
13695;BME280;6919;52.344;14.518;2023-03-13T00:33:57;99872.25;;;6.58;100.00
13695;BME280;6919;52.344;14.518;2023-03-13T00:36:29;99865.47;;;6.64;100.00
13695;BME280;6919;52.344;14.518;2023-03-13T00:38:58;99859.84;;;6.67;100.00
13695;BME280;6919;52.344;14.518;2023-03-13T00:41:28;99860.16;;;6.64;100.00
13695;BME280;6919;52.344;14.518;2023-03-13T00:43:57;99858.31;;;6.64;100.00
13695;BME280;6919;52.344;14.518;2023-03-13T00:46:28;99857.28;;;6.75;100.00
13695;BME280;6919;52.344;14.518;2023-03-13T00:48:57;99850.72;;;6.69;100.00
13695;BME280;6919;52.344;14.518;2023-03-13T00:51:28;99848.50;;;6.65;100.00
13695;BME280;6919;52.344;14.518;2023-03-13T00:53:58;99843.31;;;6.90;100.00
13695;BME280;6919;52.344;14.518;2023-03-13T00:56:27;99845.34;;;6.79;100.00
13695;BME280;6919;52.344;14.518;2023-03-13T00:58:56;99847.59;;;7.01;100.00
13695;BME280;6919;52.344;14.518;2023-03-13T01:01:28;99839.00;;;7.07;100.00
13695;BME280;6919;52.344;14.518;2023-03-13T01:03:59;99835.78;;;7.03;100.00
13695;BME280;6919;52.344;14.518;2023-03-13T01:06:31;99823.00;;;7.07;100.00
13695;BME280;6919;52.344;14.518;2023-03-13T01:09:00;99826.06;;;7.12;100.00
13695;BME280;6919;52.344;14.518;2023-03-13T01:11:31;99820.78;;;7.20;100.00
13695;BME280;6919;52.344;14.518;2023-03-13T01:14:02;99822.94;;;7.16;100.00
13695;BME280;6919;52.344;14.518;2023-03-13T01:16:33;99824.09;;;7.14;100.00
13695;BME280;6919;52.344;14.518;2023-03-13T01:19:04;99811.75;;;7.30;100.00
13695;BME280;6919;52.344;14.518;2023-03-13T01:21:35;99814.41;;;7.30;100.00
13695;BME280;6919;52.344;14.518;2023-03-13T01:24:04;99814.13;;;7.33;100.00
13695;BME280;6919;52.344;14.518;2023-03-13T01:26:33;99818.75;;;7.31;100.00
13695;BME280;6919;52.344;14.518;2023-03-13T01:29:02;99820.81;;;7.37;100.00
13695;BME280;6919;52.344;14.518;2023-03-13T01:31:33;99826.84;;;7.39;100.00
13695;BME280;6919;52.344;14.518;2023-03-13T01:34:03;99828.06;;;7.45;100.00
13695;BME280;6919;52.344;14.518;2023-03-13T01:36:35;99828.66;;;7.39;100.00
13695;BME280;6919;52.344;14.518;2023-03-13T01:39:04;99818.44;;;7.52;100.00
13695;BME280;6919;52.344;14.518;2023-03-13T01:41:33;99821.84;;;7.62;100.00
13695;BME280;6919;52.344;14.518;2023-03-13T01:44:02;99805.63;;;7.55;100.00
13695;BME280;6919;52.344;14.518;2023-03-13T01:46:31;99802.06;;;7.47;100.00
13695;BME280;6919;52.344;14.518;2023-03-13T01:49:03;99803.16;;;7.36;100.00
13695;BME280;6919;52.344;14.518;2023-03-13T01:51:36;99809.75;;;7.50;100.00
13695;BME280;6919;52.344;14.518;2023-03-13T01:54:08;99799.19;;;7.40;100.00
13695;BME280;6919;52.344;14.518;2023-03-13T01:56:40;99805.13;;;7.52;100.00
13695;BME280;6919;52.344;14.518;2023-03-13T01:59:13;99808.78;;;7.33;100.00
13695;BME280;6919;52.344;14.518;2023-03-13T02:01:44;99814.63;;;7.37;100.00
13695;BME280;6919;52.344;14.518;2023-03-13T02:04:15;99806.63;;;7.37;100.00
13695;BME280;6919;52.344;14.518;2023-03-13T02:06:50;99806.19;;;7.24;100.00
13695;BME280;6919;52.344;14.518;2023-03-13T02:09:24;99793.28;;;7.37;100.00
13695;BME280;6919;52.344;14.518;2023-03-13T02:11:58;99793.59;;;7.34;100.00
13695;BME280;6919;52.344;14.518;2023-03-13T02:14:32;99797.34;;;7.23;100.00
13695;BME280;6919;52.344;14.518;2023-03-13T02:17:03;99788.44;;;7.32;100.00
13695;BME280;6919;52.344;14.518;2023-03-13T02:19:39;99789.00;;;7.18;100.00
13695;BME280;6919;52.344;14.518;2023-03-13T02:22:15;99784.94;;;7.32;100.00
13695;BME280;6919;52.344;14.518;2023-03-13T02:24:52;99780.75;;;7.29;100.00
13695;BME280;6919;52.344;14.518;2023-03-13T02:27:25;99776.53;;;7.27;100.00
13695;BME280;6919;52.344;14.518;2023-03-13T02:29:54;99772.66;;;7.39;100.00
13695;BME280;6919;52.344;14.518;2023-03-13T02:32:23;99768.84;;;7.41;100.00
13695;BME280;6919;52.344;14.518;2023-03-13T02:34:56;99765.34;;;7.23;100.00
13695;BME280;6919;52.344;14.518;2023-03-13T02:37:28;99766.66;;;7.02;100.00
13695;BME280;6919;52.344;14.518;2023-03-13T02:40:00;99770.38;;;7.09;100.00
13695;BME280;6919;52.344;14.518;2023-03-13T02:42:33;99760.72;;;7.08;100.00
13695;BME280;6919;52.344;14.518;2023-03-13T02:45:01;99760.34;;;7.03;100.00
13695;BME280;6919;52.344;14.518;2023-03-13T02:47:30;99754.53;;;7.07;100.00
13695;BME280;6919;52.344;14.518;2023-03-13T02:49:59;99747.44;;;7.16;100.00
13695;BME280;6919;52.344;14.518;2023-03-13T02:52:30;99749.28;;;6.98;100.00
13695;BME280;6919;52.344;14.518;2023-03-13T02:55:05;99739.56;;;7.49;100.00
13695;BME280;6919;52.344;14.518;2023-03-13T02:57:36;99734.19;;;7.67;100.00
13695;BME280;6919;52.344;14.518;2023-03-13T03:00:06;99728.00;;;7.66;100.00
13695;BME280;6919;52.344;14.518;2023-03-13T03:02:38;99726.84;;;7.69;100.00
13695;BME280;6919;52.344;14.518;2023-03-13T03:05:08;99737.38;;;7.45;100.00
13695;BME280;6919;52.344;14.518;2023-03-13T03:07:36;99741.88;;;7.44;100.00
13695;BME280;6919;52.344;14.518;2023-03-13T03:10:06;99738.00;;;7.39;100.00
13695;BME280;6919;52.344;14.518;2023-03-13T03:12:36;99734.22;;;7.24;100.00
13695;BME280;6919;52.344;14.518;2023-03-13T03:15:06;99734.28;;;7.32;100.00
13695;BME280;6919;52.344;14.518;2023-03-13T03:17:35;99723.97;;;7.37;100.00
13695;BME280;6919;52.344;14.518;2023-03-13T03:20:04;99720.88;;;7.24;100.00
13695;BME280;6919;52.344;14.518;2023-03-13T03:22:34;99717.50;;;7.39;100.00
13695;BME280;6919;52.344;14.518;2023-03-13T03:25:05;99713.69;;;7.24;100.00
13695;BME280;6919;52.344;14.518;2023-03-13T03:27:35;99704.63;;;7.35;100.00
13695;BME280;6919;52.344;14.518;2023-03-13T03:30:05;99704.50;;;7.19;100.00
13695;BME280;6919;52.344;14.518;2023-03-13T03:32:34;99704.03;;;7.23;100.00
13695;BME280;6919;52.344;14.518;2023-03-13T03:35:03;99691.13;;;7.11;100.00
13695;BME280;6919;52.344;14.518;2023-03-13T03:37:31;99691.56;;;7.24;100.00
13695;BME280;6919;52.344;14.518;2023-03-13T03:40:00;99690.00;;;7.21;100.00
13695;BME280;6919;52.344;14.518;2023-03-13T03:42:31;99692.97;;;7.36;100.00
13695;BME280;6919;52.344;14.518;2023-03-13T03:45:02;99690.75;;;7.31;100.00
13695;BME280;6919;52.344;14.518;2023-03-13T03:47:31;99690.19;;;7.45;100.00
13695;BME280;6919;52.344;14.518;2023-03-13T03:49:59;99683.34;;;7.43;100.00
13695;BME280;6919;52.344;14.518;2023-03-13T03:52:29;99671.84;;;7.42;100.00
13695;BME280;6919;52.344;14.518;2023-03-13T03:54:58;99674.19;;;7.45;100.00
13695;BME280;6919;52.344;14.518;2023-03-13T03:57:26;99669.56;;;7.47;100.00
13695;BME280;6919;52.344;14.518;2023-03-13T03:59:55;99668.91;;;7.53;100.00
13695;BME280;6919;52.344;14.518;2023-03-13T04:02:25;99669.16;;;7.42;100.00
13695;BME280;6919;52.344;14.518;2023-03-13T04:04:54;99664.78;;;7.33;100.00
13695;BME280;6919;52.344;14.518;2023-03-13T04:07:23;99657.59;;;7.34;100.00
13695;BME280;6919;52.344;14.518;2023-03-13T04:09:52;99656.75;;;7.25;100.00
13695;BME280;6919;52.344;14.518;2023-03-13T04:12:21;99659.00;;;7.38;100.00
13695;BME280;6919;52.344;14.518;2023-03-13T04:14:49;99658.91;;;7.30;100.00
13695;BME280;6919;52.344;14.518;2023-03-13T04:17:18;99641.94;;;7.31;100.00
13695;BME280;6919;52.344;14.518;2023-03-13T04:19:48;99647.44;;;7.29;100.00
13695;BME280;6919;52.344;14.518;2023-03-13T04:22:16;99645.56;;;7.47;100.00
13695;BME280;6919;52.344;14.518;2023-03-13T04:24:45;99643.63;;;7.32;100.00
13695;BME280;6919;52.344;14.518;2023-03-13T04:27:13;99635.19;;;7.44;100.00
13695;BME280;6919;52.344;14.518;2023-03-13T04:29:43;99638.38;;;7.48;100.00
13695;BME280;6919;52.344;14.518;2023-03-13T04:32:12;99627.91;;;7.54;100.00
13695;BME280;6919;52.344;14.518;2023-03-13T04:34:40;99623.78;;;7.60;100.00
13695;BME280;6919;52.344;14.518;2023-03-13T04:37:10;99625.75;;;7.58;100.00
13695;BME280;6919;52.344;14.518;2023-03-13T04:39:39;99614.47;;;7.64;100.00
13695;BME280;6919;52.344;14.518;2023-03-13T04:42:09;99603.09;;;7.62;100.00
13695;BME280;6919;52.344;14.518;2023-03-13T04:44:38;99609.28;;;7.62;100.00
13695;BME280;6919;52.344;14.518;2023-03-13T04:47:09;99595.09;;;7.62;100.00
13695;BME280;6919;52.344;14.518;2023-03-13T04:49:38;99599.22;;;7.48;100.00
13695;BME280;6919;52.344;14.518;2023-03-13T04:52:07;99585.69;;;7.42;100.00
13695;BME280;6919;52.344;14.518;2023-03-13T04:54:36;99586.75;;;7.57;100.00
13695;BME280;6919;52.344;14.518;2023-03-13T04:57:05;99581.59;;;7.63;100.00
13695;BME280;6919;52.344;14.518;2023-03-13T04:59:34;99579.50;;;7.75;100.00
13695;BME280;6919;52.344;14.518;2023-03-13T05:02:02;99567.75;;;7.60;100.00
13695;BME280;6919;52.344;14.518;2023-03-13T05:04:31;99557.44;;;7.65;100.00
13695;BME280;6919;52.344;14.518;2023-03-13T05:06:59;99569.09;;;7.64;100.00
13695;BME280;6919;52.344;14.518;2023-03-13T05:09:28;99561.41;;;7.61;100.00
13695;BME280;6919;52.344;14.518;2023-03-13T05:11:58;99552.63;;;7.68;100.00
13695;BME280;6919;52.344;14.518;2023-03-13T05:14:26;99549.44;;;7.65;100.00
13695;BME280;6919;52.344;14.518;2023-03-13T05:16:56;99544.94;;;7.65;100.00
13695;BME280;6919;52.344;14.518;2023-03-13T05:19:25;99538.75;;;7.65;100.00
13695;BME280;6919;52.344;14.518;2023-03-13T05:21:53;99537.13;;;7.80;100.00
13695;BME280;6919;52.344;14.518;2023-03-13T05:24:22;99522.50;;;7.84;100.00
13695;BME280;6919;52.344;14.518;2023-03-13T05:26:50;99523.47;;;7.83;100.00
13695;BME280;6919;52.344;14.518;2023-03-13T05:29:20;99509.41;;;7.65;100.00
13695;BME280;6919;52.344;14.518;2023-03-13T05:31:49;99507.31;;;7.84;100.00
13695;BME280;6919;52.344;14.518;2023-03-13T05:34:18;99510.44;;;7.72;100.00
13695;BME280;6919;52.344;14.518;2023-03-13T05:36:46;99507.28;;;7.68;100.00
13695;BME280;6919;52.344;14.518;2023-03-13T05:39:15;99506.97;;;7.71;100.00
13695;BME280;6919;52.344;14.518;2023-03-13T05:41:43;99507.28;;;7.76;100.00
13695;BME280;6919;52.344;14.518;2023-03-13T05:44:12;99506.44;;;7.76;100.00
13695;BME280;6919;52.344;14.518;2023-03-13T05:46:42;99512.44;;;7.70;100.00
13695;BME280;6919;52.344;14.518;2023-03-13T05:49:10;99510.13;;;7.75;100.00
13695;BME280;6919;52.344;14.518;2023-03-13T05:51:39;99508.13;;;7.77;100.00
13695;BME280;6919;52.344;14.518;2023-03-13T05:54:07;99499.97;;;7.78;100.00
13695;BME280;6919;52.344;14.518;2023-03-13T05:56:36;99502.44;;;7.72;100.00
13695;BME280;6919;52.344;14.518;2023-03-13T05:59:05;99496.09;;;7.73;100.00
13695;BME280;6919;52.344;14.518;2023-03-13T06:01:33;99491.97;;;7.78;100.00
13695;BME280;6919;52.344;14.518;2023-03-13T06:04:03;99485.63;;;7.71;100.00
13695;BME280;6919;52.344;14.518;2023-03-13T06:06:32;99486.41;;;7.64;100.00
13695;BME280;6919;52.344;14.518;2023-03-13T06:09:01;99478.09;;;7.67;100.00
13695;BME280;6919;52.344;14.518;2023-03-13T06:11:29;99475.09;;;7.78;100.00
13695;BME280;6919;52.344;14.518;2023-03-13T06:13:58;99465.63;;;7.91;100.00
13695;BME280;6919;52.344;14.518;2023-03-13T06:16:26;99456.28;;;7.87;100.00
13695;BME280;6919;52.344;14.518;2023-03-13T06:18:55;99455.94;;;7.90;100.00
13695;BME280;6919;52.344;14.518;2023-03-13T06:21:25;99440.44;;;7.86;100.00
13695;BME280;6919;52.344;14.518;2023-03-13T06:23:54;99438.75;;;8.01;100.00
13695;BME280;6919;52.344;14.518;2023-03-13T06:26:23;99437.78;;;8.02;100.00
13695;BME280;6919;52.344;14.518;2023-03-13T06:28:52;99423.41;;;8.11;100.00
13695;BME280;6919;52.344;14.518;2023-03-13T06:31:21;99419.13;;;8.26;100.00
13695;BME280;6919;52.344;14.518;2023-03-13T06:33:52;99417.78;;;7.98;100.00
13695;BME280;6919;52.344;14.518;2023-03-13T06:36:21;99414.28;;;8.21;100.00
13695;BME280;6919;52.344;14.518;2023-03-13T06:38:52;99421.28;;;8.14;100.00
13695;BME280;6919;52.344;14.518;2023-03-13T06:41:21;99408.09;;;8.05;100.00
13695;BME280;6919;52.344;14.518;2023-03-13T06:43:50;99409.75;;;8.14;100.00
13695;BME280;6919;52.344;14.518;2023-03-13T06:46:22;99407.09;;;8.22;100.00
13695;BME280;6919;52.344;14.518;2023-03-13T06:48:51;99413.44;;;8.29;100.00
13695;BME280;6919;52.344;14.518;2023-03-13T06:51:21;99399.44;;;8.27;100.00
13695;BME280;6919;52.344;14.518;2023-03-13T06:53:49;99395.91;;;8.26;100.00
13695;BME280;6919;52.344;14.518;2023-03-13T06:56:20;99392.94;;;8.21;100.00
13695;BME280;6919;52.344;14.518;2023-03-13T06:58:49;99390.06;;;8.31;100.00
13695;BME280;6919;52.344;14.518;2023-03-13T07:01:18;99391.06;;;8.38;100.00
13695;BME280;6919;52.344;14.518;2023-03-13T07:03:47;99390.06;;;8.39;100.00
13695;BME280;6919;52.344;14.518;2023-03-13T07:06:16;99381.84;;;8.48;100.00
13695;BME280;6919;52.344;14.518;2023-03-13T07:08:45;99376.69;;;8.39;100.00
13695;BME280;6919;52.344;14.518;2023-03-13T07:11:15;99377.03;;;8.36;100.00
13695;BME280;6919;52.344;14.518;2023-03-13T07:13:45;99369.03;;;8.44;100.00
13695;BME280;6919;52.344;14.518;2023-03-13T07:16:13;99366.97;;;8.54;100.00
13695;BME280;6919;52.344;14.518;2023-03-13T07:18:42;99351.75;;;8.62;100.00
13695;BME280;6919;52.344;14.518;2023-03-13T07:21:12;99349.28;;;8.53;100.00
13695;BME280;6919;52.344;14.518;2023-03-13T07:23:40;99339.28;;;8.55;100.00
13695;BME280;6919;52.344;14.518;2023-03-13T07:26:11;99334.22;;;8.60;100.00
13695;BME280;6919;52.344;14.518;2023-03-13T07:28:42;99333.50;;;8.74;100.00
13695;BME280;6919;52.344;14.518;2023-03-13T07:31:13;99329.34;;;8.71;100.00
13695;BME280;6919;52.344;14.518;2023-03-13T07:33:43;99317.81;;;8.79;100.00
13695;BME280;6919;52.344;14.518;2023-03-13T07:36:13;99314.03;;;8.96;100.00
13695;BME280;6919;52.344;14.518;2023-03-13T07:38:42;99306.00;;;8.96;100.00
13695;BME280;6919;52.344;14.518;2023-03-13T07:41:11;99306.78;;;9.04;100.00
13695;BME280;6919;52.344;14.518;2023-03-13T07:43:40;99305.47;;;9.00;100.00
13695;BME280;6919;52.344;14.518;2023-03-13T07:46:12;99300.94;;;9.09;100.00
13695;BME280;6919;52.344;14.518;2023-03-13T07:48:42;99298.53;;;9.14;100.00
13695;BME280;6919;52.344;14.518;2023-03-13T07:51:13;99297.84;;;9.20;100.00
13695;BME280;6919;52.344;14.518;2023-03-13T07:53:42;99290.31;;;9.24;100.00
13695;BME280;6919;52.344;14.518;2023-03-13T07:56:12;99283.94;;;9.25;100.00
13695;BME280;6919;52.344;14.518;2023-03-13T07:58:42;99278.94;;;9.22;100.00
13695;BME280;6919;52.344;14.518;2023-03-13T08:01:15;99277.41;;;9.27;100.00
13695;BME280;6919;52.344;14.518;2023-03-13T08:03:45;99272.16;;;9.34;100.00
13695;BME280;6919;52.344;14.518;2023-03-13T08:06:17;99275.78;;;9.41;100.00
13695;BME280;6919;52.344;14.518;2023-03-13T08:08:46;99273.00;;;9.34;100.00
13695;BME280;6919;52.344;14.518;2023-03-13T08:11:16;99266.94;;;9.40;100.00
13695;BME280;6919;52.344;14.518;2023-03-13T08:13:45;99262.81;;;9.38;100.00
13695;BME280;6919;52.344;14.518;2023-03-13T08:16:19;99256.59;;;9.37;100.00
13695;BME280;6919;52.344;14.518;2023-03-13T08:18:49;99255.72;;;9.45;100.00
13695;BME280;6919;52.344;14.518;2023-03-13T08:21:21;99251.78;;;9.55;100.00
13695;BME280;6919;52.344;14.518;2023-03-13T08:23:53;99248.56;;;9.60;100.00
13695;BME280;6919;52.344;14.518;2023-03-13T08:26:24;99250.75;;;9.56;100.00
13695;BME280;6919;52.344;14.518;2023-03-13T08:28:54;99244.22;;;9.59;100.00
13695;BME280;6919;52.344;14.518;2023-03-13T08:31:27;99245.47;;;9.48;100.00
13695;BME280;6919;52.344;14.518;2023-03-13T08:33:56;99245.63;;;9.32;100.00
13695;BME280;6919;52.344;14.518;2023-03-13T08:36:26;99239.84;;;9.43;100.00
13695;BME280;6919;52.344;14.518;2023-03-13T08:38:58;99245.13;;;9.29;100.00
13695;BME280;6919;52.344;14.518;2023-03-13T08:41:29;99253.50;;;9.26;100.00
13695;BME280;6919;52.344;14.518;2023-03-13T08:43:58;99255.38;;;9.25;100.00
13695;BME280;6919;52.344;14.518;2023-03-13T08:46:29;99249.19;;;9.25;100.00
13695;BME280;6919;52.344;14.518;2023-03-13T08:48:58;99245.66;;;9.24;100.00
13695;BME280;6919;52.344;14.518;2023-03-13T08:51:27;99246.41;;;9.18;100.00
13695;BME280;6919;52.344;14.518;2023-03-13T08:53:56;99244.13;;;9.07;100.00
13695;BME280;6919;52.344;14.518;2023-03-13T08:56:26;99239.16;;;9.04;100.00
13695;BME280;6919;52.344;14.518;2023-03-13T08:58:58;99238.31;;;9.26;100.00
13695;BME280;6919;52.344;14.518;2023-03-13T09:01:30;99233.72;;;9.12;100.00
13695;BME280;6919;52.344;14.518;2023-03-13T09:03:59;99244.19;;;9.22;100.00
13695;BME280;6919;52.344;14.518;2023-03-13T09:06:31;99241.06;;;9.18;100.00
13695;BME280;6919;52.344;14.518;2023-03-13T09:08:59;99243.59;;;9.34;100.00
13695;BME280;6919;52.344;14.518;2023-03-13T09:11:28;99231.53;;;9.16;100.00
13695;BME280;6919;52.344;14.518;2023-03-13T09:13:57;99220.03;;;9.30;100.00
13695;BME280;6919;52.344;14.518;2023-03-13T09:16:29;99238.31;;;9.26;100.00
13695;BME280;6919;52.344;14.518;2023-03-13T09:18:59;99234.16;;;9.24;100.00
13695;BME280;6919;52.344;14.518;2023-03-13T09:21:29;99236.16;;;9.22;100.00
13695;BME280;6919;52.344;14.518;2023-03-13T09:23:58;99231.16;;;9.19;100.00
13695;BME280;6919;52.344;14.518;2023-03-13T09:26:27;99227.84;;;9.17;100.00
13695;BME280;6919;52.344;14.518;2023-03-13T09:28:56;99227.63;;;9.26;100.00
13695;BME280;6919;52.344;14.518;2023-03-13T09:31:26;99227.28;;;9.21;100.00
13695;BME280;6919;52.344;14.518;2023-03-13T09:33:57;99225.75;;;9.27;100.00
13695;BME280;6919;52.344;14.518;2023-03-13T09:36:27;99229.97;;;9.21;100.00
13695;BME280;6919;52.344;14.518;2023-03-13T09:38:57;99223.69;;;9.14;100.00
13695;BME280;6919;52.344;14.518;2023-03-13T09:41:28;99219.88;;;9.08;100.00
13695;BME280;6919;52.344;14.518;2023-03-13T09:44:03;99228.66;;;9.17;100.00
13695;BME280;6919;52.344;14.518;2023-03-13T09:46:37;99213.13;;;9.21;100.00
13695;BME280;6919;52.344;14.518;2023-03-13T09:49:14;99212.38;;;9.27;100.00
13695;BME280;6919;52.344;14.518;2023-03-13T09:51:49;99208.19;;;9.32;100.00
13695;BME280;6919;52.344;14.518;2023-03-13T09:54:23;99219.88;;;9.31;100.00
13695;BME280;6919;52.344;14.518;2023-03-13T09:56:55;99212.69;;;9.32;100.00
13695;BME280;6919;52.344;14.518;2023-03-13T09:59:28;99213.03;;;9.29;100.00
13695;BME280;6919;52.344;14.518;2023-03-13T10:02:02;99211.38;;;9.28;100.00
13695;BME280;6919;52.344;14.518;2023-03-13T10:04:37;99218.28;;;9.22;100.00
13695;BME280;6919;52.344;14.518;2023-03-13T10:07:10;99215.44;;;9.24;100.00
13695;BME280;6919;52.344;14.518;2023-03-13T10:09:39;99219.88;;;9.31;100.00
13695;BME280;6919;52.344;14.518;2023-03-13T10:12:14;99209.53;;;9.28;100.00
13695;BME280;6919;52.344;14.518;2023-03-13T10:14:52;99210.84;;;9.32;100.00
13695;BME280;6919;52.344;14.518;2023-03-13T10:17:31;99215.09;;;9.41;100.00
13695;BME280;6919;52.344;14.518;2023-03-13T10:20:12;99218.13;;;9.38;100.00
13695;BME280;6919;52.344;14.518;2023-03-13T10:22:45;99218.44;;;9.43;100.00
13695;BME280;6919;52.344;14.518;2023-03-13T10:25:26;99215.34;;;9.54;100.00
13695;BME280;6919;52.344;14.518;2023-03-13T10:27:55;99214.91;;;9.80;100.00
13695;BME280;6919;52.344;14.518;2023-03-13T10:30:26;99208.59;;;9.73;100.00
13695;BME280;6919;52.344;14.518;2023-03-13T10:32:58;99213.50;;;9.69;100.00
13695;BME280;6919;52.344;14.518;2023-03-13T10:35:34;99214.22;;;9.63;100.00
13695;BME280;6919;52.344;14.518;2023-03-13T10:38:07;99201.50;;;9.65;100.00
13695;BME280;6919;52.344;14.518;2023-03-13T10:40:37;99206.31;;;9.70;100.00
13695;BME280;6919;52.344;14.518;2023-03-13T10:43:13;99214.22;;;9.63;100.00
13695;BME280;6919;52.344;14.518;2023-03-13T10:45:44;99214.91;;;9.65;100.00
13695;BME280;6919;52.344;14.518;2023-03-13T10:48:14;99197.44;;;9.69;100.00
13695;BME280;6919;52.344;14.518;2023-03-13T10:50:48;99200.13;;;9.69;100.00
13695;BME280;6919;52.344;14.518;2023-03-13T10:53:25;99195.72;;;9.76;100.00
13695;BME280;6919;52.344;14.518;2023-03-13T10:56:03;99188.78;;;9.82;100.00
13695;BME280;6919;52.344;14.518;2023-03-13T10:58:41;99184.84;;;9.92;100.00
13695;BME280;6919;52.344;14.518;2023-03-13T11:01:16;99186.31;;;9.95;100.00
13695;BME280;6919;52.344;14.518;2023-03-13T11:03:46;99165.56;;;10.11;100.00
13695;BME280;6919;52.344;14.518;2023-03-13T11:06:31;99171.16;;;10.31;100.00
13695;BME280;6919;52.344;14.518;2023-03-13T11:09:12;99150.47;;;10.25;100.00
13695;BME280;6919;52.344;14.518;2023-03-13T11:11:49;99152.22;;;10.32;100.00
13695;BME280;6919;52.344;14.518;2023-03-13T11:14:19;99139.38;;;10.42;100.00
13695;BME280;6919;52.344;14.518;2023-03-13T11:16:50;99139.56;;;10.41;100.00
13695;BME280;6919;52.344;14.518;2023-03-13T11:19:34;99138.09;;;10.38;100.00
13695;BME280;6919;52.344;14.518;2023-03-13T11:22:36;99127.69;;;10.50;100.00
13695;BME280;6919;52.344;14.518;2023-03-13T11:25:22;99127.91;;;10.69;100.00
13695;BME280;6919;52.344;14.518;2023-03-13T11:31:06;99132.50;;;10.75;100.00
13695;BME280;6919;52.344;14.518;2023-03-13T11:33:39;99135.56;;;10.93;100.00
13695;BME280;6919;52.344;14.518;2023-03-13T11:36:20;99132.75;;;11.01;100.00
13695;BME280;6919;52.344;14.518;2023-03-13T11:39:01;99119.69;;;11.19;100.00
13695;BME280;6919;52.344;14.518;2023-03-13T11:41:44;99106.28;;;11.19;100.00
13695;BME280;6919;52.344;14.518;2023-03-13T11:44:26;99117.91;;;11.26;100.00
13695;BME280;6919;52.344;14.518;2023-03-13T11:47:10;99096.44;;;11.26;100.00
13695;BME280;6919;52.344;14.518;2023-03-13T11:52:51;99084.53;;;11.35;100.00
13695;BME280;6919;52.344;14.518;2023-03-13T11:55:40;99076.44;;;11.56;100.00
13695;BME280;6919;52.344;14.518;2023-03-13T11:58:25;99063.16;;;11.76;100.00
13695;BME280;6919;52.344;14.518;2023-03-13T12:00:59;99066.97;;;11.95;100.00
13695;BME280;6919;52.344;14.518;2023-03-13T12:03:35;99057.66;;;11.97;100.00
13695;BME280;6919;52.344;14.518;2023-03-13T12:06:10;99043.00;;;12.06;100.00
13695;BME280;6919;52.344;14.518;2023-03-13T12:08:57;99035.00;;;12.13;100.00
13695;BME280;6919;52.344;14.518;2023-03-13T12:11:33;99027.38;;;12.29;100.00
13695;BME280;6919;52.344;14.518;2023-03-13T12:14:08;99018.97;;;12.45;100.00
13695;BME280;6919;52.344;14.518;2023-03-13T12:16:42;99041.31;;;12.52;100.00
13695;BME280;6919;52.344;14.518;2023-03-13T12:19:16;99018.53;;;12.68;100.00
13695;BME280;6919;52.344;14.518;2023-03-13T12:21:49;99023.72;;;12.89;100.00
13695;BME280;6919;52.344;14.518;2023-03-13T12:24:25;99018.38;;;12.76;100.00
13695;BME280;6919;52.344;14.518;2023-03-13T12:27:01;99012.56;;;12.79;100.00
13695;BME280;6919;52.344;14.518;2023-03-13T12:29:39;99018.34;;;12.63;100.00
13695;BME280;6919;52.344;14.518;2023-03-13T12:32:13;99004.91;;;12.56;100.00
13695;BME280;6919;52.344;14.518;2023-03-13T12:34:54;99015.03;;;12.54;100.00
13695;BME280;6919;52.344;14.518;2023-03-13T12:37:32;98988.13;;;12.80;100.00
13695;BME280;6919;52.344;14.518;2023-03-13T12:40:11;99000.34;;;12.89;100.00
13695;BME280;6919;52.344;14.518;2023-03-13T12:42:50;98995.22;;;13.01;100.00
13695;BME280;6919;52.344;14.518;2023-03-13T12:45:24;98984.44;;;13.07;100.00
13695;BME280;6919;52.344;14.518;2023-03-13T12:48:22;98981.31;;;13.17;100.00
13695;BME280;6919;52.344;14.518;2023-03-13T12:51:06;98978.81;;;13.22;100.00
13695;BME280;6919;52.344;14.518;2023-03-13T12:56:53;98984.28;;;13.66;100.00
13695;BME280;6919;52.344;14.518;2023-03-13T12:59:34;98982.06;;;13.94;100.00
13695;BME280;6919;52.344;14.518;2023-03-13T13:02:15;98980.59;;;14.04;100.00
13695;BME280;6919;52.344;14.518;2023-03-13T13:04:46;98975.06;;;13.86;100.00
13695;BME280;6919;52.344;14.518;2023-03-13T13:07:22;98958.19;;;14.04;100.00
13695;BME280;6919;52.344;14.518;2023-03-13T13:10:12;98962.78;;;14.34;100.00
13695;BME280;6919;52.344;14.518;2023-03-13T13:12:44;98960.81;;;14.48;100.00
13695;BME280;6919;52.344;14.518;2023-03-13T13:15:21;98958.28;;;14.84;100.00
13695;BME280;6919;52.344;14.518;2023-03-13T13:18:02;98943.50;;;14.87;100.00
13695;BME280;6919;52.344;14.518;2023-03-13T13:20:42;98940.53;;;15.13;100.00
13695;BME280;6919;52.344;14.518;2023-03-13T13:23:36;98934.47;;;15.17;100.00
13695;BME280;6919;52.344;14.518;2023-03-13T13:32:39;98923.63;;;16.48;100.00
13695;BME280;6919;52.344;14.518;2023-03-13T13:35:30;98931.09;;;16.35;100.00
13695;BME280;6919;52.344;14.518;2023-03-13T13:38:24;98917.59;;;16.46;100.00